createdAt,value
2019-01-31T00:01:14.358Z,14.60
2019-01-31T00:04:09.642Z,15.67
2019-01-31T00:07:03.643Z,13.95
2019-01-31T00:10:13.631Z,14.43
2019-01-31T00:13:09.575Z,14.87
2019-01-31T00:16:05.954Z,14.70
2019-01-31T00:19:11.163Z,14.30
2019-01-31T00:22:21.975Z,14.60
2019-01-31T00:24:59.315Z,14.10
2019-01-31T00:27:49.522Z,16.00
2019-01-31T00:30:49.888Z,15.58
2019-01-31T00:33:45.544Z,16.00
2019-01-31T00:36:51.680Z,16.37
2019-01-31T00:40:00.925Z,16.50
2019-01-31T00:42:54.190Z,16.00
2019-01-31T00:45:49.724Z,16.80
2019-01-31T00:48:37.274Z,16.93
2019-01-31T00:51:29.364Z,16.67
2019-01-31T00:54:27.179Z,16.62
2019-01-31T00:57:42.000Z,17.10
2019-01-31T01:00:36.498Z,16.90
2019-01-31T01:03:29.120Z,17.37
2019-01-31T01:06:38.288Z,17.50
2019-01-31T01:09:31.627Z,18.00
2019-01-31T01:12:26.007Z,16.70
2019-01-31T01:15:35.041Z,19.15
2019-01-31T01:18:13.577Z,18.90
2019-01-31T01:20:53.842Z,19.02
2019-01-31T01:24:02.205Z,18.45
2019-01-31T01:26:53.912Z,19.00
2019-01-31T01:30:00.368Z,19.98
2019-01-31T01:33:12.567Z,19.00
2019-01-31T01:35:55.212Z,19.73
2019-01-31T01:39:06.544Z,21.40
2019-01-31T01:42:08.300Z,21.35
2019-01-31T01:45:19.303Z,22.77
2019-01-31T01:48:12.232Z,22.73
2019-01-31T01:50:57.872Z,24.07
2019-01-31T01:53:48.035Z,24.40
2019-01-31T01:56:30.976Z,24.45
2019-01-31T01:59:34.103Z,25.20
2019-01-31T02:02:43.803Z,25.52
2019-01-31T02:06:18.835Z,25.05
2019-01-31T02:09:14.776Z,25.55
2019-01-31T02:12:29.581Z,24.45
2019-01-31T02:15:47.383Z,26.12
2019-01-31T02:18:45.805Z,25.37
2019-01-31T02:21:28.476Z,25.82
2019-01-31T02:24:24.567Z,25.15
2019-01-31T02:27:54.352Z,24.50
2019-01-31T02:30:57.031Z,23.30
2019-01-31T02:34:02.064Z,23.60
2019-01-31T02:37:01.911Z,22.35
2019-01-31T02:40:13.689Z,23.52
2019-01-31T02:43:09.794Z,21.57
2019-01-31T02:46:15.768Z,19.80
2019-01-31T02:57:24.297Z,18.53
2019-01-31T03:00:29.183Z,19.47
2019-01-31T03:03:08.172Z,19.67
2019-01-31T03:06:32.756Z,18.30
2019-01-31T03:09:54.596Z,17.27
2019-01-31T03:12:52.267Z,18.37
2019-01-31T03:15:55.832Z,17.17
2019-01-31T03:18:47.904Z,18.60
2019-01-31T03:21:38.671Z,18.40
2019-01-31T03:24:43.446Z,14.57
2019-01-31T03:27:57.702Z,15.77
2019-01-31T03:31:18.504Z,14.47
2019-01-31T03:34:15.504Z,17.60
2019-01-31T03:37:27.081Z,18.87
2019-01-31T03:40:31.317Z,18.70
2019-01-31T03:43:36.316Z,17.77
2019-01-31T03:46:47.991Z,18.23
2019-01-31T03:49:54.923Z,19.02
2019-01-31T03:52:50.597Z,18.27
2019-01-31T03:56:05.670Z,17.23
2019-01-31T03:59:03.948Z,17.67
2019-01-31T04:01:57.831Z,18.10
2019-01-31T04:04:39.277Z,17.60
2019-01-31T04:07:09.965Z,18.10
2019-01-31T04:09:40.876Z,16.30
2019-01-31T04:14:41.119Z,15.40
2019-01-31T04:17:11.780Z,16.73
2019-01-31T04:19:42.720Z,17.90
2019-01-31T04:22:13.944Z,17.55
2019-01-31T04:24:44.779Z,17.40
2019-01-31T04:27:18.004Z,17.75
2019-01-31T04:29:50.928Z,17.60
2019-01-31T04:32:21.627Z,16.45
2019-01-31T04:34:52.583Z,16.02
2019-01-31T04:37:23.464Z,16.97
2019-01-31T04:39:54.424Z,16.90
2019-01-31T04:42:25.179Z,17.37
2019-01-31T04:44:55.989Z,17.00
2019-01-31T04:47:26.689Z,17.12
2019-01-31T04:49:59.555Z,17.30
2019-01-31T04:52:30.358Z,18.50
2019-01-31T04:55:10.022Z,18.32
2019-01-31T04:57:40.021Z,17.32
2019-01-31T05:00:13.824Z,17.35
2019-01-31T05:02:44.588Z,16.60
2019-01-31T05:05:15.606Z,16.85
2019-01-31T05:07:46.576Z,16.62
2019-01-31T05:10:17.388Z,15.00
2019-01-31T05:27:50.779Z,12.77
2019-01-31T05:30:24.990Z,13.43
2019-01-31T05:40:27.080Z,13.43
2019-01-31T05:42:57.836Z,14.70
2019-01-31T05:45:28.546Z,15.20
2019-01-31T05:47:59.236Z,16.10
2019-01-31T05:55:29.408Z,14.87
2019-01-31T05:58:00.252Z,16.20
2019-01-31T06:00:35.832Z,14.90
2019-01-31T06:03:06.582Z,16.47
2019-01-31T06:05:37.749Z,15.50
2019-01-31T06:15:37.426Z,15.70
2019-01-31T06:18:08.303Z,17.70
2019-01-31T06:20:39.018Z,17.00
2019-01-31T06:23:09.835Z,20.65
2019-01-31T06:25:40.788Z,19.10
2019-01-31T06:28:12.972Z,16.87
2019-01-31T06:33:13.481Z,15.70
2019-01-31T06:35:44.291Z,17.73
2019-01-31T06:38:15.013Z,17.30
2019-01-31T06:40:45.682Z,16.30
2019-01-31T06:43:17.164Z,15.60
2019-01-31T06:45:47.750Z,14.97
2019-01-31T06:48:18.599Z,14.73
2019-01-31T06:50:49.350Z,14.90
2019-01-31T06:53:21.614Z,15.33
2019-01-31T06:55:52.445Z,14.43
2019-01-31T06:58:26.039Z,14.23
2019-01-31T07:00:57.380Z,15.87
2019-01-31T07:03:31.696Z,14.40
2019-01-31T07:06:02.416Z,16.10
2019-01-31T07:08:35.718Z,15.43
2019-01-31T07:11:06.424Z,19.12
2019-01-31T07:13:37.138Z,18.62
2019-01-31T07:16:08.444Z,18.42
2019-01-31T07:18:39.162Z,18.77
2019-01-31T07:21:11.634Z,18.65
2019-01-31T07:23:42.505Z,20.02
2019-01-31T07:26:17.981Z,19.20
2019-01-31T07:28:53.609Z,19.32
2019-01-31T07:31:24.692Z,18.60
2019-01-31T07:34:14.853Z,18.12
2019-01-31T07:36:47.644Z,17.93
2019-01-31T07:39:18.616Z,18.73
2019-01-31T07:41:49.879Z,18.23
2019-01-31T07:49:32.172Z,15.50
2019-01-31T07:53:07.867Z,16.50
2019-01-31T07:55:59.233Z,14.60
2019-01-31T07:58:49.262Z,13.10
2019-01-31T08:01:36.529Z,10.70
2019-01-31T08:04:24.694Z,12.18
2019-01-31T08:07:10.801Z,12.43
2019-01-31T08:13:36.592Z,11.40
2019-01-31T08:16:10.001Z,9.60
2019-01-31T08:18:53.857Z,9.90
2019-01-31T08:21:24.849Z,9.23
2019-01-31T08:28:53.815Z,10.00
2019-01-31T08:35:16.821Z,9.80
2019-01-31T08:42:03.518Z,8.80
2019-01-31T08:48:12.497Z,9.00
2019-01-31T08:51:11.467Z,9.20
2019-01-31T08:54:14.478Z,8.93
2019-01-31T08:57:36.910Z,9.00
2019-01-31T09:00:54.991Z,8.37
2019-01-31T09:04:01.597Z,7.90
2019-01-31T09:07:01.932Z,8.90
2019-01-31T09:09:43.476Z,8.10
2019-01-31T09:12:57.228Z,8.77
2019-01-31T09:16:03.429Z,8.00
2019-01-31T09:18:54.078Z,7.53
2019-01-31T09:22:44.962Z,7.80
2019-01-31T09:26:28.574Z,7.90
2019-01-31T09:29:47.944Z,7.37
2019-01-31T09:33:06.348Z,7.17
2019-01-31T09:36:42.469Z,7.60
2019-01-31T09:40:26.238Z,7.23
2019-01-31T09:43:56.841Z,8.50
2019-01-31T09:47:23.718Z,6.63
2019-01-31T09:50:35.240Z,8.10
2019-01-31T09:54:23.556Z,7.70
2019-01-31T09:58:01.102Z,8.50
2019-01-31T10:01:08.421Z,8.10
2019-01-31T10:04:25.197Z,7.43
2019-01-31T10:07:24.277Z,7.80
2019-01-31T10:10:36.938Z,7.30
2019-01-31T10:14:41.288Z,7.60
2019-01-31T10:17:55.390Z,7.50
2019-01-31T10:21:28.624Z,7.00
2019-01-31T10:54:16.636Z,6.00
2019-01-31T10:57:26.290Z,5.60
2019-01-31T11:00:42.374Z,6.00
2019-01-31T11:03:40.716Z,5.00
2019-01-31T11:06:33.702Z,5.37
2019-01-31T11:09:25.126Z,5.90
2019-01-31T11:12:27.565Z,5.30
2019-01-31T11:15:39.318Z,5.37
2019-01-31T11:18:37.969Z,4.67
2019-01-31T11:21:42.579Z,4.77
2019-01-31T11:24:37.562Z,5.10
2019-01-31T11:27:55.677Z,4.73
2019-01-31T11:30:58.996Z,4.50
2019-01-31T11:33:42.658Z,5.00
2019-01-31T11:36:42.111Z,4.80
2019-01-31T11:39:36.427Z,5.43
2019-01-31T11:42:44.822Z,4.90
2019-01-31T11:46:08.872Z,4.67
2019-01-31T11:49:08.629Z,4.90
2019-01-31T11:52:31.955Z,4.50
2019-01-31T11:55:39.654Z,3.73
2019-01-31T11:58:33.278Z,4.97
2019-01-31T12:01:07.705Z,4.50
2019-01-31T12:03:38.846Z,4.87
2019-01-31T12:06:09.586Z,4.70
2019-01-31T12:08:40.253Z,5.90
2019-01-31T12:11:10.997Z,4.77
2019-01-31T12:13:41.677Z,5.13
2019-01-31T12:16:12.328Z,6.07
2019-01-31T12:23:42.420Z,3.40
2019-01-31T12:28:44.941Z,3.63
2019-01-31T12:31:15.710Z,3.87
2019-01-31T12:48:44.643Z,5.17
2019-01-31T12:51:15.257Z,3.70
2019-01-31T12:53:45.942Z,3.53
2019-01-31T12:56:16.839Z,3.80
2019-01-31T12:58:47.813Z,4.42
2019-01-31T13:01:18.384Z,4.10
2019-01-31T13:03:49.117Z,3.30
2019-01-31T13:06:19.987Z,4.17
2019-01-31T13:08:50.673Z,3.70
2019-01-31T13:11:21.326Z,3.20
2019-01-31T13:13:51.866Z,2.90
2019-01-31T13:16:22.647Z,3.47
2019-01-31T13:18:53.204Z,3.20
2019-01-31T13:21:23.997Z,3.40
2019-01-31T13:23:54.621Z,2.97
2019-01-31T13:26:25.252Z,4.43
2019-01-31T13:28:55.896Z,3.70
2019-01-31T13:31:26.572Z,3.20
2019-01-31T13:33:57.181Z,3.10
2019-01-31T13:36:28.213Z,2.40
2019-01-31T13:38:58.778Z,2.83
2019-01-31T13:41:29.551Z,2.97
2019-01-31T13:44:01.073Z,3.70
2019-01-31T13:46:31.743Z,3.10
2019-01-31T13:49:04.532Z,2.50
2019-01-31T13:51:35.232Z,2.80
2019-01-31T13:54:06.374Z,2.23
2019-01-31T13:56:45.201Z,2.50
2019-01-31T13:59:10.983Z,3.00
2019-01-31T14:01:41.618Z,3.12
2019-01-31T14:04:12.509Z,3.10
2019-01-31T14:06:43.539Z,2.57
2019-01-31T14:09:14.158Z,2.20
2019-01-31T14:11:44.729Z,2.80
2019-01-31T14:14:15.677Z,2.80
2019-01-31T14:16:47.973Z,2.40
2019-01-31T14:19:20.353Z,2.30
2019-01-31T14:21:52.069Z,3.00
2019-01-31T14:24:22.705Z,2.23
2019-01-31T14:26:53.892Z,2.13
2019-01-31T14:29:26.670Z,2.27
2019-01-31T14:31:57.421Z,2.83
2019-01-31T14:34:28.030Z,2.50
2019-01-31T14:36:58.806Z,2.60
2019-01-31T14:39:29.617Z,2.20
2019-01-31T14:42:02.228Z,2.73
2019-01-31T14:44:33.053Z,3.00
2019-01-31T14:47:04.084Z,3.10
2019-01-31T14:49:34.665Z,2.50
2019-01-31T14:52:06.019Z,2.70
2019-01-31T14:54:36.683Z,2.60
2019-01-31T14:57:07.481Z,2.20
2019-01-31T14:59:38.422Z,2.40
2019-01-31T15:02:09.022Z,2.20
2019-01-31T15:24:39.886Z,2.10
2019-01-31T15:27:10.555Z,1.90
2019-01-31T15:29:42.738Z,2.10
2019-01-31T15:32:17.658Z,2.50
2019-01-31T15:34:48.199Z,2.27
2019-01-31T15:37:18.770Z,2.50
2019-01-31T15:39:51.582Z,2.15
2019-01-31T15:42:22.293Z,2.58
2019-01-31T15:44:52.946Z,2.80
2019-01-31T15:47:26.962Z,2.17
2019-01-31T15:49:57.682Z,2.67
2019-01-31T15:52:28.272Z,2.87
2019-01-31T15:54:58.956Z,2.70
2019-01-31T15:57:29.617Z,2.93
2019-01-31T16:00:00.365Z,2.70
2019-01-31T16:02:31.061Z,2.70
2019-01-31T16:05:01.697Z,2.72
2019-01-31T16:07:32.317Z,3.30
2019-01-31T16:10:03.003Z,3.15
2019-01-31T16:12:35.437Z,3.20
2019-01-31T16:15:07.731Z,3.12
2019-01-31T16:17:38.453Z,3.22
2019-01-31T16:20:11.299Z,3.40
2019-01-31T16:22:42.266Z,3.55
2019-01-31T16:25:12.969Z,3.00
2019-01-31T16:27:43.635Z,3.17
2019-01-31T16:30:14.991Z,3.90
